Portada
METAR-TAF:

METAR-TAF

Aeropuertos :

Fort Rucker, Alabama, Estados Unidos

latitud: 31-21-32N, longitud: 085-44-54W, altitud: 78 m

Observación

El informe se hizo hace 20 minutos, a las 19:38 UTC
Viento 7 kt del oeste-noroeste
Temperatura 12°C
Humedad 88%
Presión 1014 hPa
Visibilidad: 16.1 km
Cielo nuboso a una altura de 1400 ft
Cielo cubierto a una altura de 2000 ft

METAR: KLOR 271938Z AUTO 30007KT 10SM BKN014 OVC020 12/10 A2995 RMK AO2 SLPNO

Hora: 13:58 (19:58 UTC)


TAF: falta

Observaciones y pronósticos meteorológicos de más de 4000 aeropuertos (mensajes METAR y TAF).

Los puntos amarillos y rojos representan las estaciones disponibles.

Ponga el ratón en el punto deseado para ver el nombre de la estación.

Haga clic para ver las observaciones y los pronósticos meteorológicos.

Para cambiar el mapa : haga clic en los botones verdes con una cruz de color negro para hacer un zoom, en el botón verde con un guión para alejar o en las flechas verdes para mapas adyacentes.


METAR-TAF: